sensor_id;sensor_type;location;lat;lon;timestamp;P1;durP1;ratioP1;P2;durP2;ratioP2
72439;SDS011;60446;50.752;4.352;2023-04-09T00:02:04;28.25;;;11.25;;
72439;SDS011;60446;50.752;4.352;2023-04-09T00:04:31;25.92;;;10.25;;
72439;SDS011;60446;50.752;4.352;2023-04-09T00:06:59;26.27;;;10.50;;
72439;SDS011;60446;50.752;4.352;2023-04-09T00:09:26;25.17;;;9.10;;
72439;SDS011;60446;50.752;4.352;2023-04-09T00:11:53;24.52;;;10.02;;
72439;SDS011;60446;50.752;4.352;2023-04-09T00:14:21;26.88;;;10.10;;
72439;SDS011;60446;50.752;4.352;2023-04-09T00:16:48;23.48;;;9.43;;
72439;SDS011;60446;50.752;4.352;2023-04-09T00:19:15;25.17;;;10.25;;
72439;SDS011;60446;50.752;4.352;2023-04-09T00:21:43;21.67;;;8.77;;
72439;SDS011;60446;50.752;4.352;2023-04-09T00:24:10;22.08;;;9.35;;
72439;SDS011;60446;50.752;4.352;2023-04-09T00:26:37;25.92;;;11.48;;
72439;SDS011;60446;50.752;4.352;2023-04-09T00:29:04;22.88;;;9.77;;
72439;SDS011;60446;50.752;4.352;2023-04-09T00:31:31;23.88;;;9.60;;
72439;SDS011;60446;50.752;4.352;2023-04-09T00:33:58;24.77;;;9.43;;
72439;SDS011;60446;50.752;4.352;2023-04-09T00:36:26;19.95;;;8.95;;
72439;SDS011;60446;50.752;4.352;2023-04-09T00:38:53;25.05;;;9.50;;
72439;SDS011;60446;50.752;4.352;2023-04-09T00:41:20;23.52;;;8.63;;
72439;SDS011;60446;50.752;4.352;2023-04-09T00:43:47;23.67;;;9.85;;
72439;SDS011;60446;50.752;4.352;2023-04-09T00:46:15;21.70;;;8.70;;
72439;SDS011;60446;50.752;4.352;2023-04-09T00:48:43;21.77;;;8.85;;
72439;SDS011;60446;50.752;4.352;2023-04-09T00:51:11;22.95;;;9.05;;
72439;SDS011;60446;50.752;4.352;2023-04-09T00:53:38;25.85;;;9.68;;
72439;SDS011;60446;50.752;4.352;2023-04-09T00:56:06;23.00;;;9.27;;
72439;SDS011;60446;50.752;4.352;2023-04-09T00:58:33;24.83;;;9.63;;
72439;SDS011;60446;50.752;4.352;2023-04-09T01:01:01;25.73;;;10.30;;
72439;SDS011;60446;50.752;4.352;2023-04-09T01:03:28;27.17;;;9.90;;
72439;SDS011;60446;50.752;4.352;2023-04-09T01:06:17;22.17;;;9.00;;
72439;SDS011;60446;50.752;4.352;2023-04-09T01:20:34;23.42;;;8.55;;
72439;SDS011;60446;50.752;4.352;2023-04-09T01:26:20;22.88;;;9.13;;
72439;SDS011;60446;50.752;4.352;2023-04-09T01:29:19;22.38;;;8.65;;
72439;SDS011;60446;50.752;4.352;2023-04-09T01:31:49;25.05;;;9.43;;
72439;SDS011;60446;50.752;4.352;2023-04-09T01:34:17;21.30;;;8.90;;
72439;SDS011;60446;50.752;4.352;2023-04-09T01:36:48;26.15;;;9.32;;
72439;SDS011;60446;50.752;4.352;2023-04-09T01:39:19;26.38;;;9.52;;
72439;SDS011;60446;50.752;4.352;2023-04-09T01:41:47;21.95;;;9.77;;
72439;SDS011;60446;50.752;4.352;2023-04-09T01:44:16;26.98;;;9.77;;
72439;SDS011;60446;50.752;4.352;2023-04-09T01:46:48;26.27;;;10.02;;
72439;SDS011;60446;50.752;4.352;2023-04-09T01:49:16;25.13;;;10.23;;
72439;SDS011;60446;50.752;4.352;2023-04-09T01:51:44;24.33;;;8.98;;
72439;SDS011;60446;50.752;4.352;2023-04-09T01:54:12;30.33;;;10.45;;
72439;SDS011;60446;50.752;4.352;2023-04-09T01:56:42;30.45;;;10.27;;
72439;SDS011;60446;50.752;4.352;2023-04-09T01:59:13;22.65;;;9.23;;
72439;SDS011;60446;50.752;4.352;2023-04-09T02:01:44;23.90;;;9.93;;
72439;SDS011;60446;50.752;4.352;2023-04-09T02:04:32;23.77;;;9.20;;
72439;SDS011;60446;50.752;4.352;2023-04-09T02:09:43;27.92;;;9.90;;
72439;SDS011;60446;50.752;4.352;2023-04-09T02:12:14;25.33;;;11.45;;
72439;SDS011;60446;50.752;4.352;2023-04-09T02:14:47;28.20;;;11.05;;
72439;SDS011;60446;50.752;4.352;2023-04-09T02:17:18;28.83;;;11.20;;
72439;SDS011;60446;50.752;4.352;2023-04-09T02:19:45;28.95;;;11.55;;
72439;SDS011;60446;50.752;4.352;2023-04-09T02:22:14;28.20;;;10.77;;
72439;SDS011;60446;50.752;4.352;2023-04-09T02:24:42;27.77;;;10.75;;
72439;SDS011;60446;50.752;4.352;2023-04-09T02:27:09;30.15;;;11.30;;
72439;SDS011;60446;50.752;4.352;2023-04-09T02:29:38;28.42;;;10.45;;
72439;SDS011;60446;50.752;4.352;2023-04-09T02:32:06;31.58;;;10.75;;
72439;SDS011;60446;50.752;4.352;2023-04-09T02:34:33;33.08;;;12.57;;
72439;SDS011;60446;50.752;4.352;2023-04-09T02:37:00;38.55;;;12.18;;
72439;SDS011;60446;50.752;4.352;2023-04-09T02:39:27;42.95;;;13.95;;
72439;SDS011;60446;50.752;4.352;2023-04-09T02:41:54;27.90;;;10.27;;
72439;SDS011;60446;50.752;4.352;2023-04-09T02:44:25;29.10;;;10.55;;
72439;SDS011;60446;50.752;4.352;2023-04-09T02:46:52;29.77;;;12.00;;
72439;SDS011;60446;50.752;4.352;2023-04-09T02:49:21;36.67;;;13.40;;
72439;SDS011;60446;50.752;4.352;2023-04-09T02:51:49;36.20;;;13.98;;
72439;SDS011;60446;50.752;4.352;2023-04-09T02:54:16;38.30;;;13.70;;
72439;SDS011;60446;50.752;4.352;2023-04-09T02:56:46;38.00;;;14.60;;
72439;SDS011;60446;50.752;4.352;2023-04-09T02:59:13;41.80;;;14.63;;
72439;SDS011;60446;50.752;4.352;2023-04-09T03:01:40;40.30;;;13.98;;
72439;SDS011;60446;50.752;4.352;2023-04-09T03:04:07;41.80;;;14.57;;
72439;SDS011;60446;50.752;4.352;2023-04-09T03:06:34;41.30;;;15.32;;
72439;SDS011;60446;50.752;4.352;2023-04-09T03:09:01;45.53;;;15.73;;
72439;SDS011;60446;50.752;4.352;2023-04-09T03:11:29;45.50;;;15.88;;
72439;SDS011;60446;50.752;4.352;2023-04-09T03:13:56;51.90;;;16.52;;
72439;SDS011;60446;50.752;4.352;2023-04-09T03:16:23;41.90;;;16.25;;
72439;SDS011;60446;50.752;4.352;2023-04-09T03:18:51;44.60;;;15.57;;
72439;SDS011;60446;50.752;4.352;2023-04-09T03:21:19;44.65;;;15.90;;
72439;SDS011;60446;50.752;4.352;2023-04-09T03:23:48;47.38;;;15.75;;
72439;SDS011;60446;50.752;4.352;2023-04-09T03:26:15;43.42;;;15.13;;
72439;SDS011;60446;50.752;4.352;2023-04-09T03:28:47;45.70;;;14.93;;
72439;SDS011;60446;50.752;4.352;2023-04-09T03:31:15;48.38;;;16.45;;
72439;SDS011;60446;50.752;4.352;2023-04-09T03:33:43;48.75;;;16.52;;
72439;SDS011;60446;50.752;4.352;2023-04-09T03:36:11;42.67;;;13.90;;
72439;SDS011;60446;50.752;4.352;2023-04-09T03:39:00;51.50;;;16.10;;
72439;SDS011;60446;50.752;4.352;2023-04-09T03:41:33;42.45;;;14.85;;
72439;SDS011;60446;50.752;4.352;2023-04-09T03:44:08;39.95;;;12.70;;
72439;SDS011;60446;50.752;4.352;2023-04-09T03:46:46;44.08;;;14.45;;
72439;SDS011;60446;50.752;4.352;2023-04-09T03:49:16;43.10;;;14.50;;
72439;SDS011;60446;50.752;4.352;2023-04-09T03:51:44;43.13;;;14.73;;
72439;SDS011;60446;50.752;4.352;2023-04-09T03:54:11;48.03;;;15.40;;
72439;SDS011;60446;50.752;4.352;2023-04-09T03:56:39;49.47;;;16.05;;
72439;SDS011;60446;50.752;4.352;2023-04-09T03:59:10;43.35;;;14.85;;
72439;SDS011;60446;50.752;4.352;2023-04-09T04:01:40;47.47;;;15.63;;
72439;SDS011;60446;50.752;4.352;2023-04-09T04:04:08;51.40;;;15.45;;
72439;SDS011;60446;50.752;4.352;2023-04-09T04:06:49;47.17;;;15.88;;
72439;SDS011;60446;50.752;4.352;2023-04-09T04:09:28;45.25;;;14.50;;
72439;SDS011;60446;50.752;4.352;2023-04-09T04:12:11;43.40;;;14.23;;
72439;SDS011;60446;50.752;4.352;2023-04-09T04:14:58;46.28;;;15.93;;
72439;SDS011;60446;50.752;4.352;2023-04-09T04:17:34;47.28;;;15.15;;
72439;SDS011;60446;50.752;4.352;2023-04-09T04:20:04;52.13;;;16.42;;
72439;SDS011;60446;50.752;4.352;2023-04-09T04:22:39;49.33;;;15.55;;
72439;SDS011;60446;50.752;4.352;2023-04-09T04:25:07;56.70;;;15.85;;
72439;SDS011;60446;50.752;4.352;2023-04-09T04:27:34;47.13;;;15.27;;
72439;SDS011;60446;50.752;4.352;2023-04-09T04:30:02;49.90;;;17.08;;
72439;SDS011;60446;50.752;4.352;2023-04-09T04:32:40;50.92;;;16.15;;
72439;SDS011;60446;50.752;4.352;2023-04-09T04:35:09;52.78;;;17.15;;
72439;SDS011;60446;50.752;4.352;2023-04-09T04:37:38;47.95;;;15.88;;
72439;SDS011;60446;50.752;4.352;2023-04-09T04:40:06;48.70;;;16.73;;
72439;SDS011;60446;50.752;4.352;2023-04-09T04:42:39;54.38;;;16.30;;
72439;SDS011;60446;50.752;4.352;2023-04-09T04:45:10;42.92;;;14.82;;
72439;SDS011;60446;50.752;4.352;2023-04-09T04:47:42;45.10;;;15.55;;
72439;SDS011;60446;50.752;4.352;2023-04-09T04:50:10;44.80;;;16.80;;
72439;SDS011;60446;50.752;4.352;2023-04-09T04:52:50;46.83;;;14.05;;
72439;SDS011;60446;50.752;4.352;2023-04-09T04:55:19;49.28;;;16.92;;
72439;SDS011;60446;50.752;4.352;2023-04-09T04:57:48;50.63;;;16.80;;
72439;SDS011;60446;50.752;4.352;2023-04-09T05:00:20;52.28;;;17.60;;
72439;SDS011;60446;50.752;4.352;2023-04-09T05:02:47;57.70;;;19.10;;
72439;SDS011;60446;50.752;4.352;2023-04-09T05:05:35;47.03;;;16.73;;
72439;SDS011;60446;50.752;4.352;2023-04-09T05:08:02;50.42;;;18.15;;
72439;SDS011;60446;50.752;4.352;2023-04-09T05:10:29;51.90;;;16.58;;
72439;SDS011;60446;50.752;4.352;2023-04-09T05:12:58;45.38;;;16.20;;
72439;SDS011;60446;50.752;4.352;2023-04-09T05:15:36;47.70;;;16.25;;
72439;SDS011;60446;50.752;4.352;2023-04-09T05:18:05;51.47;;;17.05;;
72439;SDS011;60446;50.752;4.352;2023-04-09T05:20:33;53.70;;;17.92;;
72439;SDS011;60446;50.752;4.352;2023-04-09T05:23:06;45.58;;;15.60;;
72439;SDS011;60446;50.752;4.352;2023-04-09T05:25:40;52.95;;;16.92;;
72439;SDS011;60446;50.752;4.352;2023-04-09T05:28:22;56.95;;;16.98;;
72439;SDS011;60446;50.752;4.352;2023-04-09T05:31:00;49.10;;;15.07;;
72439;SDS011;60446;50.752;4.352;2023-04-09T05:33:29;49.65;;;17.20;;
72439;SDS011;60446;50.752;4.352;2023-04-09T05:36:07;46.50;;;16.98;;
72439;SDS011;60446;50.752;4.352;2023-04-09T05:38:41;42.83;;;16.17;;
72439;SDS011;60446;50.752;4.352;2023-04-09T05:41:09;50.92;;;17.38;;
72439;SDS011;60446;50.752;4.352;2023-04-09T05:43:44;44.25;;;15.40;;
72439;SDS011;60446;50.752;4.352;2023-04-09T05:46:11;42.05;;;15.65;;
72439;SDS011;60446;50.752;4.352;2023-04-09T05:48:38;42.28;;;14.10;;
72439;SDS011;60446;50.752;4.352;2023-04-09T05:51:06;45.25;;;16.38;;
72439;SDS011;60446;50.752;4.352;2023-04-09T05:53:35;45.95;;;14.73;;
72439;SDS011;60446;50.752;4.352;2023-04-09T05:56:11;52.45;;;16.63;;
72439;SDS011;60446;50.752;4.352;2023-04-09T05:58:48;49.38;;;16.20;;
72439;SDS011;60446;50.752;4.352;2023-04-09T06:01:16;49.95;;;15.93;;
72439;SDS011;60446;50.752;4.352;2023-04-09T06:03:43;49.67;;;16.90;;
72439;SDS011;60446;50.752;4.352;2023-04-09T06:06:11;45.65;;;15.00;;
72439;SDS011;60446;50.752;4.352;2023-04-09T06:08:38;53.15;;;17.75;;
72439;SDS011;60446;50.752;4.352;2023-04-09T06:11:09;51.88;;;16.83;;
72439;SDS011;60446;50.752;4.352;2023-04-09T06:13:37;54.03;;;18.42;;
72439;SDS011;60446;50.752;4.352;2023-04-09T06:16:05;56.47;;;19.08;;
72439;SDS011;60446;50.752;4.352;2023-04-09T06:18:34;46.75;;;16.60;;
72439;SDS011;60446;50.752;4.352;2023-04-09T06:21:03;63.75;;;19.42;;
72439;SDS011;60446;50.752;4.352;2023-04-09T06:23:32;51.75;;;18.38;;
72439;SDS011;60446;50.752;4.352;2023-04-09T06:26:01;56.63;;;18.52;;
72439;SDS011;60446;50.752;4.352;2023-04-09T06:28:28;58.88;;;18.70;;
72439;SDS011;60446;50.752;4.352;2023-04-09T06:30:57;52.67;;;18.77;;
72439;SDS011;60446;50.752;4.352;2023-04-09T06:33:24;53.90;;;18.33;;
72439;SDS011;60446;50.752;4.352;2023-04-09T06:35:51;49.05;;;17.08;;
72439;SDS011;60446;50.752;4.352;2023-04-09T06:38:19;55.70;;;19.60;;
72439;SDS011;60446;50.752;4.352;2023-04-09T06:40:46;50.25;;;17.50;;
72439;SDS011;60446;50.752;4.352;2023-04-09T06:43:13;49.88;;;17.65;;
72439;SDS011;60446;50.752;4.352;2023-04-09T06:45:46;56.40;;;19.15;;
72439;SDS011;60446;50.752;4.352;2023-04-09T06:48:13;57.88;;;19.48;;
72439;SDS011;60446;50.752;4.352;2023-04-09T06:50:40;61.10;;;18.70;;
72439;SDS011;60446;50.752;4.352;2023-04-09T06:53:13;52.28;;;19.17;;
72439;SDS011;60446;50.752;4.352;2023-04-09T06:55:43;49.53;;;18.30;;
72439;SDS011;60446;50.752;4.352;2023-04-09T06:58:13;57.05;;;19.13;;
72439;SDS011;60446;50.752;4.352;2023-04-09T07:00:43;61.47;;;18.15;;
72439;SDS011;60446;50.752;4.352;2023-04-09T07:03:10;56.55;;;19.67;;
72439;SDS011;60446;50.752;4.352;2023-04-09T07:05:37;47.58;;;17.70;;
72439;SDS011;60446;50.752;4.352;2023-04-09T07:08:04;55.10;;;18.13;;
72439;SDS011;60446;50.752;4.352;2023-04-09T07:10:32;52.70;;;18.02;;
72439;SDS011;60446;50.752;4.352;2023-04-09T07:13:05;48.60;;;16.58;;
72439;SDS011;60446;50.752;4.352;2023-04-09T07:15:36;53.65;;;17.20;;
72439;SDS011;60446;50.752;4.352;2023-04-09T07:18:11;51.00;;;16.52;;
72439;SDS011;60446;50.752;4.352;2023-04-09T07:20:47;41.17;;;15.20;;
72439;SDS011;60446;50.752;4.352;2023-04-09T07:23:23;45.33;;;15.43;;
72439;SDS011;60446;50.752;4.352;2023-04-09T07:26:02;42.90;;;16.45;;
72439;SDS011;60446;50.752;4.352;2023-04-09T07:28:44;42.63;;;14.43;;
72439;SDS011;60446;50.752;4.352;2023-04-09T07:31:12;49.22;;;16.08;;
72439;SDS011;60446;50.752;4.352;2023-04-09T07:33:46;48.27;;;17.03;;
72439;SDS011;60446;50.752;4.352;2023-04-09T07:36:14;44.30;;;15.45;;
72439;SDS011;60446;50.752;4.352;2023-04-09T07:38:42;43.90;;;15.30;;
72439;SDS011;60446;50.752;4.352;2023-04-09T07:41:23;44.88;;;14.55;;
72439;SDS011;60446;50.752;4.352;2023-04-09T07:43:50;46.03;;;15.63;;
72439;SDS011;60446;50.752;4.352;2023-04-09T07:46:22;42.23;;;15.00;;
72439;SDS011;60446;50.752;4.352;2023-04-09T07:48:52;38.17;;;14.35;;
72439;SDS011;60446;50.752;4.352;2023-04-09T07:51:20;50.35;;;14.85;;
72439;SDS011;60446;50.752;4.352;2023-04-09T07:53:47;38.85;;;14.18;;
72439;SDS011;60446;50.752;4.352;2023-04-09T07:56:14;38.72;;;14.77;;
72439;SDS011;60446;50.752;4.352;2023-04-09T07:58:41;35.00;;;13.97;;
72439;SDS011;60446;50.752;4.352;2023-04-09T08:01:08;38.05;;;14.23;;
72439;SDS011;60446;50.752;4.352;2023-04-09T08:03:36;42.00;;;14.55;;
72439;SDS011;60446;50.752;4.352;2023-04-09T08:06:03;39.17;;;14.10;;
72439;SDS011;60446;50.752;4.352;2023-04-09T08:08:31;36.08;;;13.25;;
72439;SDS011;60446;50.752;4.352;2023-04-09T08:10:58;39.80;;;14.33;;
72439;SDS011;60446;50.752;4.352;2023-04-09T08:13:25;32.28;;;12.48;;
72439;SDS011;60446;50.752;4.352;2023-04-09T08:15:52;34.15;;;13.32;;
72439;SDS011;60446;50.752;4.352;2023-04-09T08:18:36;33.25;;;12.48;;
72439;SDS011;60446;50.752;4.352;2023-04-09T08:21:03;32.92;;;12.95;;
72439;SDS011;60446;50.752;4.352;2023-04-09T08:23:31;33.60;;;11.63;;
72439;SDS011;60446;50.752;4.352;2023-04-09T08:25:58;30.98;;;12.27;;
72439;SDS011;60446;50.752;4.352;2023-04-09T08:28:25;31.65;;;12.05;;
72439;SDS011;60446;50.752;4.352;2023-04-09T08:30:53;28.70;;;11.52;;
72439;SDS011;60446;50.752;4.352;2023-04-09T08:33:20;32.40;;;11.63;;
72439;SDS011;60446;50.752;4.352;2023-04-09T08:35:47;35.50;;;12.43;;
72439;SDS011;60446;50.752;4.352;2023-04-09T08:38:14;28.70;;;11.82;;
72439;SDS011;60446;50.752;4.352;2023-04-09T08:40:41;29.23;;;11.77;;
72439;SDS011;60446;50.752;4.352;2023-04-09T08:43:09;28.65;;;11.43;;
72439;SDS011;60446;50.752;4.352;2023-04-09T08:45:41;31.25;;;11.18;;
72439;SDS011;60446;50.752;4.352;2023-04-09T08:48:09;29.13;;;11.53;;
72439;SDS011;60446;50.752;4.352;2023-04-09T08:50:38;30.95;;;10.80;;
72439;SDS011;60446;50.752;4.352;2023-04-09T08:53:06;31.23;;;11.15;;
72439;SDS011;60446;50.752;4.352;2023-04-09T08:55:35;28.13;;;11.05;;
72439;SDS011;60446;50.752;4.352;2023-04-09T08:58:03;29.83;;;10.80;;
72439;SDS011;60446;50.752;4.352;2023-04-09T09:00:32;35.23;;;11.97;;
72439;SDS011;60446;50.752;4.352;2023-04-09T09:03:03;29.92;;;11.05;;
72439;SDS011;60446;50.752;4.352;2023-04-09T09:05:37;28.70;;;10.57;;
72439;SDS011;60446;50.752;4.352;2023-04-09T09:08:06;29.23;;;11.63;;
72439;SDS011;60446;50.752;4.352;2023-04-09T09:10:40;28.58;;;10.98;;
72439;SDS011;60446;50.752;4.352;2023-04-09T09:15:52;26.55;;;10.90;;
72439;SDS011;60446;50.752;4.352;2023-04-09T09:18:38;28.98;;;10.10;;
72439;SDS011;60446;50.752;4.352;2023-04-09T09:21:14;26.70;;;10.57;;
72439;SDS011;60446;50.752;4.352;2023-04-09T09:23:44;29.80;;;11.57;;
72439;SDS011;60446;50.752;4.352;2023-04-09T09:26:18;27.40;;;10.23;;
72439;SDS011;60446;50.752;4.352;2023-04-09T09:29:03;27.58;;;10.57;;
72439;SDS011;60446;50.752;4.352;2023-04-09T09:31:31;29.00;;;11.02;;
72439;SDS011;60446;50.752;4.352;2023-04-09T09:34:16;28.02;;;10.65;;
72439;SDS011;60446;50.752;4.352;2023-04-09T09:36:46;28.92;;;9.90;;
72439;SDS011;60446;50.752;4.352;2023-04-09T09:39:14;31.47;;;10.87;;
72439;SDS011;60446;50.752;4.352;2023-04-09T09:41:43;26.52;;;10.52;;
72439;SDS011;60446;50.752;4.352;2023-04-09T09:46:58;27.17;;;9.88;;
72439;SDS011;60446;50.752;4.352;2023-04-09T09:49:26;29.60;;;10.35;;
72439;SDS011;60446;50.752;4.352;2023-04-09T09:51:53;29.70;;;10.13;;
72439;SDS011;60446;50.752;4.352;2023-04-09T09:54:23;25.52;;;10.88;;
72439;SDS011;60446;50.752;4.352;2023-04-09T09:56:51;25.95;;;9.95;;
72439;SDS011;60446;50.752;4.352;2023-04-09T09:59:25;28.77;;;10.52;;
72439;SDS011;60446;50.752;4.352;2023-04-09T10:02:03;27.90;;;10.93;;
72439;SDS011;60446;50.752;4.352;2023-04-09T10:04:33;23.63;;;10.27;;
72439;SDS011;60446;50.752;4.352;2023-04-09T10:07:02;26.35;;;10.57;;
72439;SDS011;60446;50.752;4.352;2023-04-09T10:09:38;28.42;;;10.93;;
72439;SDS011;60446;50.752;4.352;2023-04-09T10:12:08;23.15;;;9.57;;
72439;SDS011;60446;50.752;4.352;2023-04-09T10:14:37;24.27;;;10.27;;
72439;SDS011;60446;50.752;4.352;2023-04-09T10:17:05;27.17;;;9.77;;
72439;SDS011;60446;50.752;4.352;2023-04-09T10:19:34;30.95;;;11.35;;
72439;SDS011;60446;50.752;4.352;2023-04-09T10:22:08;28.88;;;11.35;;
72439;SDS011;60446;50.752;4.352;2023-04-09T10:24:40;24.90;;;10.02;;
72439;SDS011;60446;50.752;4.352;2023-04-09T10:27:10;25.23;;;10.60;;
72439;SDS011;60446;50.752;4.352;2023-04-09T10:29:45;24.37;;;9.13;;
72439;SDS011;60446;50.752;4.352;2023-04-09T10:32:16;25.58;;;10.18;;
72439;SDS011;60446;50.752;4.352;2023-04-09T10:34:50;22.70;;;10.00;;
72439;SDS011;60446;50.752;4.352;2023-04-09T10:37:25;23.80;;;9.35;;
72439;SDS011;60446;50.752;4.352;2023-04-09T10:39:53;27.65;;;10.05;;
72439;SDS011;60446;50.752;4.352;2023-04-09T10:42:55;27.80;;;10.40;;
72439;SDS011;60446;50.752;4.352;2023-04-09T10:45:16;23.40;;;10.20;;
72439;SDS011;60446;50.752;4.352;2023-04-09T10:47:50;24.02;;;10.40;;
72439;SDS011;60446;50.752;4.352;2023-04-09T10:50:20;23.15;;;9.85;;
72439;SDS011;60446;50.752;4.352;2023-04-09T10:52:51;23.35;;;9.65;;
72439;SDS011;60446;50.752;4.352;2023-04-09T10:55:39;25.43;;;10.27;;
72439;SDS011;60446;50.752;4.352;2023-04-09T10:58:08;20.52;;;8.60;;
72439;SDS011;60446;50.752;4.352;2023-04-09T11:00:40;24.48;;;10.02;;
72439;SDS011;60446;50.752;4.352;2023-04-09T11:03:19;23.17;;;9.70;;
72439;SDS011;60446;50.752;4.352;2023-04-09T11:05:56;23.60;;;10.05;;
72439;SDS011;60446;50.752;4.352;2023-04-09T11:08:28;21.53;;;9.10;;
72439;SDS011;60446;50.752;4.352;2023-04-09T11:10:58;20.33;;;8.48;;
72439;SDS011;60446;50.752;4.352;2023-04-09T11:13:27;20.65;;;8.80;;
72439;SDS011;60446;50.752;4.352;2023-04-09T11:15:56;20.08;;;8.35;;
72439;SDS011;60446;50.752;4.352;2023-04-09T11:18:27;20.98;;;8.60;;
72439;SDS011;60446;50.752;4.352;2023-04-09T11:20:56;20.90;;;8.67;;
72439;SDS011;60446;50.752;4.352;2023-04-09T11:23:25;21.10;;;8.93;;
72439;SDS011;60446;50.752;4.352;2023-04-09T11:25:53;21.98;;;9.02;;
72439;SDS011;60446;50.752;4.352;2023-04-09T11:28:21;19.95;;;7.63;;
72439;SDS011;60446;50.752;4.352;2023-04-09T11:30:50;19.80;;;8.13;;
72439;SDS011;60446;50.752;4.352;2023-04-09T11:33:17;18.10;;;7.47;;
72439;SDS011;60446;50.752;4.352;2023-04-09T11:35:45;15.52;;;6.57;;
72439;SDS011;60446;50.752;4.352;2023-04-09T11:38:14;14.48;;;5.95;;
72439;SDS011;60446;50.752;4.352;2023-04-09T11:40:42;18.27;;;8.23;;
72439;SDS011;60446;50.752;4.352;2023-04-09T11:43:16;15.68;;;7.22;;
72439;SDS011;60446;50.752;4.352;2023-04-09T11:45:46;17.67;;;7.40;;
72439;SDS011;60446;50.752;4.352;2023-04-09T11:48:15;17.30;;;7.40;;
72439;SDS011;60446;50.752;4.352;2023-04-09T11:50:47;19.30;;;7.60;;
72439;SDS011;60446;50.752;4.352;2023-04-09T11:53:15;20.48;;;8.45;;
72439;SDS011;60446;50.752;4.352;2023-04-09T11:55:47;20.75;;;8.55;;
72439;SDS011;60446;50.752;4.352;2023-04-09T11:58:17;18.93;;;7.47;;
72439;SDS011;60446;50.752;4.352;2023-04-09T12:00:47;18.23;;;8.00;;
72439;SDS011;60446;50.752;4.352;2023-04-09T12:03:18;16.88;;;7.25;;
72439;SDS011;60446;50.752;4.352;2023-04-09T12:05:59;14.88;;;6.70;;
72439;SDS011;60446;50.752;4.352;2023-04-09T12:08:28;18.25;;;7.50;;
72439;SDS011;60446;50.752;4.352;2023-04-09T12:11:04;17.90;;;7.60;;
72439;SDS011;60446;50.752;4.352;2023-04-09T12:13:37;16.08;;;6.35;;
72439;SDS011;60446;50.752;4.352;2023-04-09T12:16:11;15.40;;;5.68;;
72439;SDS011;60446;50.752;4.352;2023-04-09T12:18:39;14.68;;;6.80;;
72439;SDS011;60446;50.752;4.352;2023-04-09T12:21:07;15.68;;;6.22;;
72439;SDS011;60446;50.752;4.352;2023-04-09T12:23:34;16.70;;;6.93;;
72439;SDS011;60446;50.752;4.352;2023-04-09T12:26:02;18.20;;;7.18;;
72439;SDS011;60446;50.752;4.352;2023-04-09T12:28:29;15.63;;;7.10;;
72439;SDS011;60446;50.752;4.352;2023-04-09T12:30:56;18.02;;;6.93;;
72439;SDS011;60446;50.752;4.352;2023-04-09T12:33:25;18.17;;;7.50;;
72439;SDS011;60446;50.752;4.352;2023-04-09T12:35:52;21.03;;;8.60;;
72439;SDS011;60446;50.752;4.352;2023-04-09T12:38:21;17.70;;;7.78;;
72439;SDS011;60446;50.752;4.352;2023-04-09T12:40:48;18.30;;;7.55;;
72439;SDS011;60446;50.752;4.352;2023-04-09T12:43:15;15.05;;;7.07;;
72439;SDS011;60446;50.752;4.352;2023-04-09T12:45:42;14.57;;;5.97;;
72439;SDS011;60446;50.752;4.352;2023-04-09T12:48:10;17.63;;;7.10;;
72439;SDS011;60446;50.752;4.352;2023-04-09T12:50:37;18.85;;;6.65;;
72439;SDS011;60446;50.752;4.352;2023-04-09T12:53:04;13.60;;;6.32;;
72439;SDS011;60446;50.752;4.352;2023-04-09T12:55:31;13.15;;;6.70;;
72439;SDS011;60446;50.752;4.352;2023-04-09T12:57:59;17.08;;;6.32;;
72439;SDS011;60446;50.752;4.352;2023-04-09T13:00:27;13.97;;;6.43;;
72439;SDS011;60446;50.752;4.352;2023-04-09T13:02:56;12.60;;;5.97;;
72439;SDS011;60446;50.752;4.352;2023-04-09T13:05:23;16.92;;;7.03;;
72439;SDS011;60446;50.752;4.352;2023-04-09T13:07:50;16.48;;;7.28;;
72439;SDS011;60446;50.752;4.352;2023-04-09T13:10:20;16.33;;;7.22;;
72439;SDS011;60446;50.752;4.352;2023-04-09T13:12:47;16.40;;;7.00;;
72439;SDS011;60446;50.752;4.352;2023-04-09T13:15:14;19.25;;;8.20;;
72439;SDS011;60446;50.752;4.352;2023-04-09T13:17:41;16.95;;;7.25;;
72439;SDS011;60446;50.752;4.352;2023-04-09T13:20:09;16.25;;;6.65;;
72439;SDS011;60446;50.752;4.352;2023-04-09T13:22:36;13.50;;;6.10;;
72439;SDS011;60446;50.752;4.352;2023-04-09T13:25:03;11.77;;;4.77;;
72439;SDS011;60446;50.752;4.352;2023-04-09T13:27:31;11.25;;;4.25;;
72439;SDS011;60446;50.752;4.352;2023-04-09T13:29:58;11.68;;;4.53;;
72439;SDS011;60446;50.752;4.352;2023-04-09T13:32:25;10.88;;;4.45;;
72439;SDS011;60446;50.752;4.352;2023-04-09T13:34:52;13.30;;;4.95;;
72439;SDS011;60446;50.752;4.352;2023-04-09T13:37:20;14.40;;;5.83;;
72439;SDS011;60446;50.752;4.352;2023-04-09T13:39:48;13.93;;;5.70;;
72439;SDS011;60446;50.752;4.352;2023-04-09T13:42:16;12.93;;;5.20;;
72439;SDS011;60446;50.752;4.352;2023-04-09T13:44:43;14.13;;;5.80;;
72439;SDS011;60446;50.752;4.352;2023-04-09T13:47:11;13.80;;;5.70;;
72439;SDS011;60446;50.752;4.352;2023-04-09T13:49:40;12.40;;;5.67;;
72439;SDS011;60446;50.752;4.352;2023-04-09T13:52:09;11.30;;;4.82;;
72439;SDS011;60446;50.752;4.352;2023-04-09T13:54:36;12.77;;;4.80;;
72439;SDS011;60446;50.752;4.352;2023-04-09T13:57:03;12.10;;;5.07;;
72439;SDS011;60446;50.752;4.352;2023-04-09T13:59:30;10.45;;;4.85;;
72439;SDS011;60446;50.752;4.352;2023-04-09T14:01:57;10.77;;;4.40;;
72439;SDS011;60446;50.752;4.352;2023-04-09T14:04:25;11.90;;;4.40;;
72439;SDS011;60446;50.752;4.352;2023-04-09T14:06:53;10.40;;;4.50;;
72439;SDS011;60446;50.752;4.352;2023-04-09T14:09:20;14.15;;;4.55;;
72439;SDS011;60446;50.752;4.352;2023-04-09T14:11:47;10.93;;;4.80;;
72439;SDS011;60446;50.752;4.352;2023-04-09T14:14:14;10.13;;;3.70;;
72439;SDS011;60446;50.752;4.352;2023-04-09T14:16:41;9.32;;;3.17;;
72439;SDS011;60446;50.752;4.352;2023-04-09T14:19:09;10.30;;;3.60;;
72439;SDS011;60446;50.752;4.352;2023-04-09T14:21:36;9.68;;;4.32;;
72439;SDS011;60446;50.752;4.352;2023-04-09T14:24:04;10.38;;;4.30;;
72439;SDS011;60446;50.752;4.352;2023-04-09T14:26:31;11.47;;;4.80;;
72439;SDS011;60446;50.752;4.352;2023-04-09T14:28:58;12.40;;;4.10;;
72439;SDS011;60446;50.752;4.352;2023-04-09T14:31:26;11.85;;;4.82;;
72439;SDS011;60446;50.752;4.352;2023-04-09T14:33:53;13.23;;;4.97;;
72439;SDS011;60446;50.752;4.352;2023-04-09T14:36:20;11.88;;;4.05;;
72439;SDS011;60446;50.752;4.352;2023-04-09T14:38:47;12.20;;;4.37;;
72439;SDS011;60446;50.752;4.352;2023-04-09T14:41:15;10.80;;;4.30;;
72439;SDS011;60446;50.752;4.352;2023-04-09T14:43:42;13.07;;;4.57;;
72439;SDS011;60446;50.752;4.352;2023-04-09T14:46:09;11.27;;;4.35;;
72439;SDS011;60446;50.752;4.352;2023-04-09T14:48:37;11.02;;;4.55;;
72439;SDS011;60446;50.752;4.352;2023-04-09T14:51:07;9.93;;;4.20;;
72439;SDS011;60446;50.752;4.352;2023-04-09T14:53:37;11.73;;;4.35;;
72439;SDS011;60446;50.752;4.352;2023-04-09T14:56:04;9.90;;;4.70;;
72439;SDS011;60446;50.752;4.352;2023-04-09T14:58:32;11.98;;;4.63;;
72439;SDS011;60446;50.752;4.352;2023-04-09T15:00:59;9.15;;;3.70;;
72439;SDS011;60446;50.752;4.352;2023-04-09T15:03:26;9.03;;;3.90;;
72439;SDS011;60446;50.752;4.352;2023-04-09T15:05:54;9.13;;;3.75;;